Time;durP1;ratioP1;P1;durP2;ratioP2;P2;SDS_P1;SDS_P2;PMS_P1;PMS_P2;Temp;Humidity;BMP_temperature;BMP_pressure;BME280_temperature;BME280_humidity;BME280_pressure;Samples;Min_cycle;Max_cycle;Signal;HPM_P1;HPM_P2
2022/08/29 00:00:47;;;;;;;;;;;;;;;25.46;45.40;99469.16;3159547;28;19924;-62
2022/08/29 00:02:18;;;;;;;;;;;;;;;25.42;45.78;99460.66;3159425;28;19924;-62
2022/08/29 00:03:49;;;;;;;;;;;;;;;25.37;45.30;99461.16;3159400;28;19934;-61
2022/08/29 00:05:23;;;;;;;;;;;;;;;25.34;45.24;99461.53;3159397;28;20408;-61
2022/08/29 00:06:54;;;;;;;;;;;;;;;25.32;45.59;99462.69;3159357;28;19924;-61
2022/08/29 00:08:27;;;;;;;;;;;;;;;25.29;45.63;99463.03;3159494;28;20265;-62
2022/08/29 00:09:58;;;;;;;;;;;;;;;25.28;45.46;99467.53;3159283;28;19939;-63
2022/08/29 00:11:29;;;;;;;;;;;;;;;25.26;45.57;99464.25;3159408;28;20320;-62
2022/08/29 00:13:01;;;;;;;;;;;;;;;25.23;46.28;99466.41;3159222;28;19931;-61
2022/08/29 00:14:33;;;;;;;;;;;;;;;25.17;46.53;99460.78;3159394;28;19928;-62
2022/08/29 00:16:05;;;;;;;;;;;;;;;25.14;46.52;99468.25;3159248;28;20273;-62
2022/08/29 00:17:37;;;;;;;;;;;;;;;25.08;47.10;99469.75;3159276;28;20336;-62
2022/08/29 00:19:08;;;;;;;;;;;;;;;25.04;46.44;99470.25;3158921;28;19935;-62
2022/08/29 00:20:40;;;;;;;;;;;;;;;25.03;46.63;99472.09;3159433;28;20328;-62
2022/08/29 00:22:10;;;;;;;;;;;;;;;25.02;46.89;99466.94;3152674;28;19924;-61
2022/08/29 00:23:45;;;;;;;;;;;;;;;24.95;46.95;99472.09;3158974;28;19924;-61
2022/08/29 00:25:17;;;;;;;;;;;;;;;24.95;47.04;99472.09;3159321;28;19927;-62
2022/08/29 00:26:48;;;;;;;;;;;;;;;24.95;46.64;99480.09;3159047;28;19950;-62
2022/08/29 00:28:20;;;;;;;;;;;;;;;24.95;46.56;99474.78;3158959;28;19925;-62
2022/08/29 00:29:51;;;;;;;;;;;;;;;24.95;46.31;99470.28;3159205;28;19924;-62
2022/08/29 00:31:23;;;;;;;;;;;;;;;24.95;46.25;99472.09;3159063;28;19932;-62
2022/08/29 00:32:54;;;;;;;;;;;;;;;24.94;46.26;99468.63;3159136;28;19945;-63
2022/08/29 00:34:25;;;;;;;;;;;;;;;24.95;46.14;99469.44;3158792;28;19924;-62
2022/08/29 00:35:57;;;;;;;;;;;;;;;24.94;46.28;99471.28;3159088;28;19925;-62
2022/08/29 00:37:27;;;;;;;;;;;;;;;24.93;46.65;99466.13;3159348;28;19935;-61
2022/08/29 00:39:00;;;;;;;;;;;;;;;24.93;46.32;99463.44;3159054;28;20489;-62
2022/08/29 00:40:33;;;;;;;;;;;;;;;24.90;46.55;99471.78;3158841;28;20448;-62
2022/08/29 00:42:03;;;;;;;;;;;;;;;24.90;46.62;99469.13;3165062;28;19924;-62
2022/08/29 00:43:36;;;;;;;;;;;;;;;24.88;46.43;99469.31;3159260;28;19924;-62
2022/08/29 00:45:09;;;;;;;;;;;;;;;24.90;46.43;99469.13;3152696;28;19928;-63
2022/08/29 00:46:45;;;;;;;;;;;;;;;24.88;46.37;99471.13;3158749;28;20423;-62
2022/08/29 00:48:17;;;;;;;;;;;;;;;24.88;46.26;99473.81;3158944;28;20026;-62
2022/08/29 00:49:50;;;;;;;;;;;;;;;24.86;46.26;99481.94;3157410;28;20756;-62
2022/08/29 00:51:22;;;;;;;;;;;;;;;24.85;46.73;99480.28;3158654;28;20011;-62
2022/08/29 00:52:56;;;;;;;;;;;;;;;24.80;46.77;99479.97;3158998;28;20389;-63
2022/08/29 00:54:30;;;;;;;;;;;;;;;24.77;46.69;99479.47;3149796;28;19931;-63
2022/08/29 00:56:02;;;;;;;;;;;;;;;24.72;47.05;99486.13;3158907;28;19981;-62
2022/08/29 00:57:33;;;;;;;;;;;;;;;24.67;46.94;99483.16;3158242;28;19947;-62
2022/08/29 00:59:08;;;;;;;;;;;;;;;24.66;46.82;99486.78;3158571;28;19923;-62
2022/08/29 01:00:40;;;;;;;;;;;;;;;24.66;46.82;99485.97;3154372;28;19924;-63
2022/08/29 01:02:12;;;;;;;;;;;;;;;24.64;46.98;99475.50;3158405;28;19924;-62
2022/08/29 01:03:43;;;;;;;;;;;;;;;24.66;46.52;99477.97;3158324;28;19928;-62
2022/08/29 01:05:16;;;;;;;;;;;;;;;24.64;46.63;99470.16;3158572;28;19928;-62
2022/08/29 01:06:47;;;;;;;;;;;;;;;24.66;46.66;99472.66;3158609;28;19985;-62
2022/08/29 01:08:19;;;;;;;;;;;;;;;24.66;46.63;99477.97;3158325;28;20497;-63
2022/08/29 01:09:53;;;;;;;;;;;;;;;24.65;46.40;99471.00;3158595;28;19932;-62
2022/08/29 01:13:13;;;;;;;;;;;;;;;24.60;46.84;99487.47;3155417;28;19928;-63
2022/08/29 01:14:47;;;;;;;;;;;;;;;24.59;46.71;99485.81;3158509;28;20406;-62
2022/08/29 01:16:19;;;;;;;;;;;;;;;24.60;46.89;99489.28;3158240;28;19931;-63
2022/08/29 01:17:51;;;;;;;;;;;;;;;24.59;46.54;99490.31;3152017;28;19924;-62
2022/08/29 01:19:30;;;;;;;;;;;;;;;24.56;46.88;99486.16;3158452;28;19931;-63
2022/08/29 01:21:06;;;;;;;;;;;;;;;24.55;46.90;99481.81;3158668;28;19959;-63
2022/08/29 01:22:42;;;;;;;;;;;;;;;24.49;47.04;99479.81;3157937;28;19931;-62
2022/08/29 01:24:23;;;;;;;;;;;;;;;24.47;47.24;99489.81;3158121;28;19928;-62
2022/08/29 01:25:54;;;;;;;;;;;;;;;24.45;46.77;99486.47;3158309;28;19925;-62
2022/08/29 01:27:29;;;;;;;;;;;;;;;24.42;47.21;99489.44;3158248;28;20353;-62
2022/08/29 01:29:00;;;;;;;;;;;;;;;24.40;47.17;99491.41;3158470;28;19931;-62
2022/08/29 01:30:31;;;;;;;;;;;;;;;24.37;47.82;99489.09;3157846;28;19931;-62
2022/08/29 01:32:03;;;;;;;;;;;;;;;24.33;47.53;99493.09;3158147;28;20400;-62
2022/08/29 01:33:41;;;;;;;;;;;;;;;24.30;47.50;99487.09;3158411;28;19924;-62
2022/08/29 01:35:13;;;;;;;;;;;;;;;24.27;47.92;99483.94;3158030;28;19928;-62
2022/08/29 01:36:46;;;;;;;;;;;;;;;24.25;47.60;99481.47;3158233;28;19924;-62
2022/08/29 01:38:26;;;;;;;;;;;;;;;24.23;47.60;99483.44;3153335;28;20011;-62
2022/08/29 01:39:59;;;;;;;;;;;;;;;24.20;47.79;99486.44;3151859;28;20074;-62
2022/08/29 01:41:31;;;;;;;;;;;;;;;24.14;48.14;99484.44;3158044;28;19928;-63
2022/08/29 01:43:03;;;;;;;;;;;;;;;24.11;48.24;99481.25;3158058;28;19931;-62
2022/08/29 01:44:33;;;;;;;;;;;;;;;24.06;48.32;99479.91;3158163;28;19931;-62
2022/08/29 01:46:05;;;;;;;;;;;;;;;24.01;48.94;99484.88;3158421;28;20396;-63
2022/08/29 01:47:37;;;;;;;;;;;;;;;23.90;49.72;99490.53;3157942;28;19963;-62
2022/08/29 01:49:09;;;;;;;;;;;;;;;23.85;49.31;99487.53;3157795;28;20297;-62
2022/08/29 01:50:41;;;;;;;;;;;;;;;23.82;49.27;99486.03;3153136;28;19982;-62
2022/08/29 01:52:13;;;;;;;;;;;;;;;23.79;49.54;99483.69;3153809;28;20297;-62
2022/08/29 01:53:44;;;;;;;;;;;;;;;23.70;50.06;99476.69;3157951;28;19947;-62
2022/08/29 01:55:17;;;;;;;;;;;;;;;23.68;49.68;99478.63;3157987;28;19924;-62
2022/08/29 01:56:49;;;;;;;;;;;;;;;23.63;50.05;99472.94;3157426;28;19928;-62
2022/08/29 01:58:21;;;;;;;;;;;;;;;23.59;50.44;99474.28;3157792;28;19932;-62
2022/08/29 01:59:52;;;;;;;;;;;;;;;23.54;50.75;99473.94;3157981;28;19981;-62
2022/08/29 02:01:25;;;;;;;;;;;;;;;23.49;50.43;99477.06;3157805;28;20381;-61
2022/08/29 02:02:59;;;;;;;;;;;;;;;23.50;50.17;99481.38;3152385;28;19947;-61
2022/08/29 02:04:31;;;;;;;;;;;;;;;23.49;50.00;99474.41;3156578;28;20005;-61
2022/08/29 02:06:03;;;;;;;;;;;;;;;23.50;49.87;99483.22;3157639;28;19924;-61
2022/08/29 02:07:34;;;;;;;;;;;;;;;23.51;50.08;99479.56;3157787;28;20337;-61
2022/08/29 02:09:06;;;;;;;;;;;;;;;23.49;50.56;99479.75;3157855;28;20285;-61
2022/08/29 02:10:39;;;;;;;;;;;;;;;23.49;50.36;99478.91;3157723;28;20321;-63
2022/08/29 02:12:11;;;;;;;;;;;;;;;23.50;50.18;99485.88;3157773;28;20329;-62
2022/08/29 02:13:44;;;;;;;;;;;;;;;23.50;50.24;99484.03;3157928;28;19925;-62
2022/08/29 02:15:17;;;;;;;;;;;;;;;23.52;50.08;99486.56;3157989;28;19924;-62
2022/08/29 02:16:47;;;;;;;;;;;;;;;23.53;50.39;99482.91;3157592;28;19931;-62
2022/08/29 02:18:20;;;;;;;;;;;;;;;23.51;50.25;99484.88;3157524;28;20007;-62
2022/08/29 02:19:51;;;;;;;;;;;;;;;23.50;50.29;99486.72;3157646;28;20537;-62
2022/08/29 02:21:24;;;;;;;;;;;;;;;23.49;50.73;99490.38;3157854;28;19924;-63
2022/08/29 02:22:55;;;;;;;;;;;;;;;23.46;50.80;99485.38;3157103;28;19932;-62
2022/08/29 02:24:27;;;;;;;;;;;;;;;23.46;50.63;99482.72;3157625;28;19931;-63
2022/08/29 02:25:59;;;;;;;;;;;;;;;23.47;50.63;99486.19;3157892;28;19928;-63
2022/08/29 02:27:31;;;;;;;;;;;;;;;23.45;51.33;99482.84;3157275;28;19935;-62
2022/08/29 02:29:02;;;;;;;;;;;;;;;23.43;50.39;99487.53;3151435;28;19928;-62
2022/08/29 02:30:34;;;;;;;;;;;;;;;23.44;50.43;99484.69;3157688;28;19928;-62
2022/08/29 02:32:06;;;;;;;;;;;;;;;23.45;50.44;99485.50;3157621;28;19924;-62
2022/08/29 02:33:38;;;;;;;;;;;;;;;23.45;50.35;99489.00;3157414;28;20556;-62
2022/08/29 02:35:10;;;;;;;;;;;;;;;23.42;50.53;99484.00;3160271;28;19928;-62
2022/08/29 02:36:41;;;;;;;;;;;;;;;23.38;50.23;99485.34;3157349;28;20395;-63
2022/08/29 02:38:13;;;;;;;;;;;;;;;23.37;50.57;99487.16;3157779;28;19928;-62
2022/08/29 02:39:45;;;;;;;;;;;;;;;23.37;50.38;99484.50;3157729;28;19924;-62
2022/08/29 02:41:17;;;;;;;;;;;;;;;23.38;50.36;99491.47;3157456;28;19924;-62
2022/08/29 02:42:48;;;;;;;;;;;;;;;23.38;50.42;99488.00;3157725;28;19997;-62
2022/08/29 02:44:20;;;;;;;;;;;;;;;23.36;50.60;99490.78;3157532;28;20001;-62
2022/08/29 02:45:52;;;;;;;;;;;;;;;23.32;50.76;99491.28;3157034;28;19931;-62
2022/08/29 02:47:24;;;;;;;;;;;;;;;23.26;50.78;99503.38;3157514;28;20424;-62
2022/08/29 02:48:55;;;;;;;;;;;;;;;23.21;51.05;99502.19;3157684;28;19931;-62
2022/08/29 02:50:27;;;;;;;;;;;;;;;23.16;51.31;99505.31;3157416;28;20293;-62
2022/08/29 02:51:59;;;;;;;;;;;;;;;23.09;51.51;99504.25;3157881;28;19934;-62
2022/08/29 02:53:30;;;;;;;;;;;;;;;23.04;51.46;99495.94;3157708;28;19935;-61
2022/08/29 02:55:01;;;;;;;;;;;;;;;22.98;51.46;99496.56;3156531;28;20011;-62
2022/08/29 02:56:34;;;;;;;;;;;;;;;22.93;51.47;99503.16;3157189;28;19935;-62
2022/08/29 02:58:06;;;;;;;;;;;;;;;22.93;51.54;99502.31;3157659;28;19924;-62
2022/08/29 02:59:37;;;;;;;;;;;;;;;22.92;51.51;99506.81;3157637;28;20658;-62
2022/08/29 03:01:08;;;;;;;;;;;;;;;22.91;51.92;99510.44;3157635;28;19935;-62
2022/08/29 03:02:39;;;;;;;;;;;;;;;22.90;51.89;99521.22;3157603;28;19928;-61
2022/08/29 03:04:11;;;;;;;;;;;;;;;22.88;51.93;99517.88;3157263;28;20238;-61
2022/08/29 03:05:42;;;;;;;;;;;;;;;22.84;52.29;99519.19;3157641;28;19924;-61
2022/08/29 03:07:15;;;;;;;;;;;;;;;22.82;51.80;99510.53;3157626;28;20316;-61
2022/08/29 03:08:46;;;;;;;;;;;;;;;22.79;52.08;99514.31;3157429;28;20515;-61
2022/08/29 03:10:18;;;;;;;;;;;;;;;22.80;52.01;99515.97;3157374;28;20400;-61
2022/08/29 03:11:54;;;;;;;;;;;;;;;22.80;51.71;99515.97;3157667;28;19936;-62
2022/08/29 03:13:26;;;;;;;;;;;;;;;22.81;51.99;99530.13;3157556;28;19977;-62
2022/08/29 03:14:57;;;;;;;;;;;;;;;22.80;52.11;99529.25;3157296;28;19935;-61
2022/08/29 03:16:29;;;;;;;;;;;;;;;22.79;52.17;99532.91;3152730;28;20393;-61
2022/08/29 03:18:00;;;;;;;;;;;;;;;22.79;52.20;99527.59;3157501;28;20392;-62
2022/08/29 03:19:31;;;;;;;;;;;;;;;22.80;52.08;99533.75;3157306;28;19924;-61
2022/08/29 03:21:03;;;;;;;;;;;;;;;22.79;51.94;99540.88;3157468;28;19928;-62
2022/08/29 03:22:34;;;;;;;;;;;;;;;22.77;52.31;99532.22;3157185;28;19943;-61
2022/08/29 03:24:05;;;;;;;;;;;;;;;22.74;52.52;99529.88;3157653;28;19924;-62
2022/08/29 03:25:37;;;;;;;;;;;;;;;22.72;52.20;99537.19;3157464;28;19931;-62
2022/08/29 03:27:10;;;;;;;;;;;;;;;22.70;52.29;99537.31;3157412;28;19928;-61
2022/08/29 03:28:41;;;;;;;;;;;;;;;22.68;52.54;99527.84;3157190;28;20318;-61
2022/08/29 03:30:12;;;;;;;;;;;;;;;;;;3159137;28;20062;-61
2022/08/29 03:31:42;;;;;;;;;;;;;;;22.64;52.54;99534.44;3159504;28;20375;-61
2022/08/29 03:33:14;;;;;;;;;;;;;;;22.63;52.47;99527.50;3157314;28;19953;-62
2022/08/29 03:34:47;;;;;;;;;;;;;;;22.62;52.29;99525.81;3157997;28;20448;-62
2022/08/29 03:36:18;;;;;;;;;;;;;;;22.62;52.30;99523.97;3159725;28;20023;-61
2022/08/29 03:37:51;;;;;;;;;;;;;;;22.62;52.46;99531.09;3159763;28;20157;-62
2022/08/29 03:39:22;;;;;;;;;;;;;;;22.60;53.14;99528.63;3159507;28;19939;-62
2022/08/29 03:40:54;;;;;;;;;;;;;;;22.61;52.69;99532.94;3159994;28;19936;-62
2022/08/29 03:42:28;;;;;;;;;;;;;;;22.62;52.34;99526.63;3159429;28;19939;-63
2022/08/29 03:43:59;;;;;;;;;;;;;;;22.63;52.55;99533.63;3159198;28;19978;-62
2022/08/29 03:45:31;;;;;;;;;;;;;;;22.64;52.36;99531.78;3159503;28;19932;-62
2022/08/29 03:47:02;;;;;;;;;;;;;;;22.64;52.29;99529.13;3159792;28;19924;-62
2022/08/29 03:48:34;;;;;;;;;;;;;;;22.65;52.21;99528.16;3159301;28;19928;-62
2022/08/29 03:50:04;;;;;;;;;;;;;;;;;;3159626;28;19936;-63
2022/08/29 03:51:37;;;;;;;;;;;;;;;22.67;52.27;99523.53;3159548;28;19931;-63
2022/08/29 03:53:09;;;;;;;;;;;;;;;22.68;52.20;99533.16;3159448;28;20006;-62
2022/08/29 03:54:40;;;;;;;;;;;;;;;22.69;52.41;99524.22;3159516;28;20417;-63
2022/08/29 03:56:12;;;;;;;;;;;;;;;22.69;52.60;99524.22;3156926;28;19928;-62
2022/08/29 03:57:44;;;;;;;;;;;;;;;22.66;52.66;99527.19;3159199;28;19935;-62
2022/08/29 03:59:16;;;;;;;;;;;;;;;22.63;52.89;99533.63;3159318;28;20315;-62
2022/08/29 04:00:48;;;;;;;;;;;;;;;22.59;53.00;99526.94;3159233;28;19924;-63
2022/08/29 04:02:19;;;;;;;;;;;;;;;22.56;52.87;99529.91;3159296;28;19981;-62
2022/08/29 04:03:51;;;;;;;;;;;;;;;22.56;52.68;99537.03;3159368;28;20008;-62
2022/08/29 04:05:22;;;;;;;;;;;;;;;22.55;53.49;99536.19;3159116;28;19930;-62
2022/08/29 04:06:53;;;;;;;;;;;;;;;22.55;53.26;99536.19;3159260;28;19928;-63
2022/08/29 04:08:25;;;;;;;;;;;;;;;22.54;53.17;99537.19;3159262;28;20301;-62
2022/08/29 04:09:56;;;;;;;;;;;;;;;22.54;53.18;99545.16;3159340;28;19931;-62
2022/08/29 04:11:28;;;;;;;;;;;;;;;22.52;53.66;99551.59;3159018;28;19925;-62
2022/08/29 04:13:01;;;;;;;;;;;;;;;22.48;53.52;99546.59;3159154;28;20362;-62
2022/08/29 04:14:32;;;;;;;;;;;;;;;22.50;53.48;99554.38;3158865;28;19931;-62
2022/08/29 04:16:08;;;;;;;;;;;;;;;22.52;53.55;99562.22;3159229;28;19935;-63
2022/08/29 04:17:40;;;;;;;;;;;;;;;22.52;53.72;99565.69;3158912;28;20407;-62
2022/08/29 04:19:10;;;;;;;;;;;;;;;22.51;53.23;99560.53;3158548;28;19928;-63
2022/08/29 04:20:43;;;;;;;;;;;;;;;22.52;53.58;99559.56;3159301;28;19930;-62
2022/08/29 04:22:14;;;;;;;;;;;;;;;22.52;53.71;99563.03;3159227;28;20311;-62
2022/08/29 04:23:46;;;;;;;;;;;;;;;22.51;53.67;99565.84;3158971;28;20019;-62
2022/08/29 04:25:18;;;;;;;;;;;;;;;22.51;53.69;99571.13;3159175;28;19924;-62
2022/08/29 04:26:48;;;;;;;;;;;;;;;22.48;53.83;99578.44;3160645;28;19924;-62
2022/08/29 04:28:22;;;;;;;;;;;;;;;22.48;53.88;99578.44;3159756;28;20016;-62
2022/08/29 04:29:53;;;;;;;;;;;;;;;22.51;53.88;99581.75;3159057;28;19928;-62
2022/08/29 04:31:24;;;;;;;;;;;;;;;22.49;53.88;99581.91;3158945;28;20015;-62
2022/08/29 04:32:56;;;;;;;;;;;;;;;22.49;53.58;99584.56;3158962;28;19931;-62
2022/08/29 04:34:27;;;;;;;;;;;;;;;22.52;53.88;99586.09;3158729;28;19924;-62
2022/08/29 04:35:59;;;;;;;;;;;;;;;22.53;53.36;99579.78;3158940;28;19928;-62
2022/08/29 04:37:31;;;;;;;;;;;;;;;22.56;53.48;99584.78;3158992;28;19994;-62
2022/08/29 04:39:02;;;;;;;;;;;;;;;22.58;53.45;99588.97;3158841;28;19935;-63
2022/08/29 04:40:34;;;;;;;;;;;;;;;22.61;53.38;99574.56;3157350;28;20061;-63
2022/08/29 04:42:06;;;;;;;;;;;;;;;22.62;53.54;99576.22;3158864;28;19931;-63
2022/08/29 04:43:39;;;;;;;;;;;;;;;22.66;53.47;99574.97;3158807;28;19931;-63
2022/08/29 04:45:12;;;;;;;;;;;;;;;22.66;53.89;99577.59;3158469;28;19924;-62
2022/08/29 04:46:43;;;;;;;;;;;;;;;22.67;53.39;99579.25;3158822;28;19928;-63
2022/08/29 04:48:16;;;;;;;;;;;;;;;22.69;53.21;99585.25;3158886;28;19928;-63
2022/08/29 04:49:49;;;;;;;;;;;;;;;22.70;53.25;99589.56;3154445;28;19924;-62
2022/08/29 04:51:20;;;;;;;;;;;;;;;22.72;53.09;99587.63;3158749;28;19924;-63
2022/08/29 04:52:52;;;;;;;;;;;;;;;22.71;53.85;99589.41;3158805;28;19994;-63
2022/08/29 04:54:24;;;;;;;;;;;;;;;22.69;53.79;99593.22;3158528;28;19928;-61
2022/08/29 04:55:56;;;;;;;;;;;;;;;22.70;53.47;99589.56;3158855;28;19935;-61
2022/08/29 04:57:27;;;;;;;;;;;;;;;22.70;53.88;99593.06;3158386;28;20359;-60
2022/08/29 04:59:00;;;;;;;;;;;;;;;22.72;53.87;99590.28;3158613;28;19951;-62
2022/08/29 05:00:32;;;;;;;;;;;;;;;22.76;53.51;99590.78;3158564;28;19931;-61
2022/08/29 05:02:04;;;;;;;;;;;;;;;22.75;53.79;99591.78;3158957;28;19935;-62
2022/08/29 05:03:34;;;;;;;;;;;;;;;22.77;53.80;99589.78;3158425;28;20371;-62
2022/08/29 05:05:07;;;;;;;;;;;;;;;22.78;53.55;99594.13;3158465;28;20011;-62
2022/08/29 05:06:37;;;;;;;;;;;;;;;22.77;54.46;99600.41;3158591;28;19928;-61
2022/08/29 05:08:09;;;;;;;;;;;;;;;22.76;53.77;99599.59;3158400;28;19930;-62
2022/08/29 05:09:41;;;;;;;;;;;;;;;22.77;53.92;99603.06;3158475;28;19924;-62
2022/08/29 05:11:15;;;;;;;;;;;;;;;22.74;54.34;99601.53;3158487;28;19928;-62
2022/08/29 05:12:47;;;;;;;;;;;;;;;22.70;54.65;99602.84;3158434;28;19924;-62
2022/08/29 05:14:20;;;;;;;;;;;;;;;22.67;54.94;99609.28;3152086;28;19928;-62
2022/08/29 05:15:50;;;;;;;;;;;;;;;;;;3158245;28;20001;-62
2022/08/29 05:17:23;;;;;;;;;;;;;;;22.62;55.32;99603.59;3158235;28;19932;-62
2022/08/29 05:18:55;;;;;;;;;;;;;;;22.62;55.76;99605.41;3158577;28;19924;-62
2022/08/29 05:20:27;;;;;;;;;;;;;;;22.58;56.33;99606.72;3158584;28;20011;-62
2022/08/29 05:21:58;;;;;;;;;;;;;;;22.56;55.68;99603.38;3158110;28;19928;-62
2022/08/29 05:23:30;;;;;;;;;;;;;;;22.57;56.04;99603.25;3159239;28;19924;-62
2022/08/29 05:25:01;;;;;;;;;;;;;;;22.58;56.14;99609.38;3158449;28;19924;-62
2022/08/29 05:26:34;;;;;;;;;;;;;;;22.56;55.98;99608.69;3158260;28;20069;-62
2022/08/29 05:28:06;;;;;;;;;;;;;;;22.59;55.73;99601.25;3158349;28;19942;-63
2022/08/29 05:29:40;;;;;;;;;;;;;;;22.63;55.45;99604.47;3158215;28;19932;-63
2022/08/29 05:31:13;;;;;;;;;;;;;;;22.68;55.44;99596.84;3158490;28;19930;-62
2022/08/29 05:32:44;;;;;;;;;;;;;;;22.75;55.39;99602.41;3158223;28;19928;-62
2022/08/29 05:34:17;;;;;;;;;;;;;;;22.81;55.05;99605.28;3157845;28;20484;-62
2022/08/29 05:35:47;;;;;;;;;;;;;;;22.89;54.99;99612.47;3158262;28;19975;-62
2022/08/29 05:37:20;;;;;;;;;;;;;;;22.98;55.11;99610.75;3158233;28;19947;-62
2022/08/29 05:38:52;;;;;;;;;;;;;;;23.05;55.25;99610.00;3155829;28;19924;-62
2022/08/29 05:40:24;;;;;;;;;;;;;;;23.13;55.12;99617.16;3158181;28;19928;-62
2022/08/29 05:41:56;;;;;;;;;;;;;;;23.23;54.79;99617.09;3158349;28;19930;-62
2022/08/29 05:43:28;;;;;;;;;;;;;;;23.31;54.42;99610.03;3158015;28;19925;-62
2022/08/29 05:45:03;;;;;;;;;;;;;;;23.41;54.34;99604.59;3158105;28;20316;-62
2022/08/29 05:46:34;;;;;;;;;;;;;;;23.51;53.87;99609.78;3158089;28;20387;-62
2022/08/29 05:48:06;;;;;;;;;;;;;;;23.62;53.78;99618.34;3158047;28;19924;-62
2022/08/29 05:49:38;;;;;;;;;;;;;;;23.75;53.31;99617.09;3157890;28;20326;-62
2022/08/29 05:51:15;;;;;;;;;;;;;;;23.84;52.92;99611.69;3158370;28;19984;-62
2022/08/29 05:52:46;;;;;;;;;;;;;;;23.98;52.77;99617.38;3151914;28;19959;-62
2022/08/29 05:54:18;;;;;;;;;;;;;;;24.09;52.52;99616.25;3158115;28;20446;-62
2022/08/29 05:55:50;;;;;;;;;;;;;;;24.23;52.40;99615.66;3158003;28;19932;-62
2022/08/29 05:57:22;;;;;;;;;;;;;;;24.38;51.93;99624.66;3157097;28;19935;-62
2022/08/29 05:58:55;;;;;;;;;;;;;;;24.50;52.07;99619.91;3158078;28;20364;-62
2022/08/29 06:00:29;;;;;;;;;;;;;;;24.58;51.93;99617.25;3158025;28;20358;-62
2022/08/29 06:02:01;;;;;;;;;;;;;;;24.71;51.51;99622.09;3157983;28;19924;-62
2022/08/29 06:03:32;;;;;;;;;;;;;;;24.79;50.78;99624.78;3156814;28;20444;-63
2022/08/29 06:05:04;;;;;;;;;;;;;;;24.89;50.64;99613.97;3157534;28;19928;-63
2022/08/29 06:06:36;;;;;;;;;;;;;;;25.00;50.42;99613.63;3158211;28;20389;-63
2022/08/29 06:08:06;;;;;;;;;;;;;;;25.13;50.35;99621.09;3158171;28;19928;-63
2022/08/29 06:09:39;;;;;;;;;;;;;;;25.25;50.14;99622.47;3157896;28;20711;-62
2022/08/29 06:11:13;;;;;;;;;;;;;;;25.38;49.52;99620.13;3158128;28;20321;-63
2022/08/29 06:12:45;;;;;;;;;;;;;;;25.52;49.31;99618.59;3157959;28;19931;-62
2022/08/29 06:14:17;;;;;;;;;;;;;;;25.65;49.14;99613.56;3158126;28;19931;-62
2022/08/29 06:15:50;;;;;;;;;;;;;;;25.78;49.26;99617.53;3158010;28;20286;-62
2022/08/29 06:17:21;;;;;;;;;;;;;;;25.89;48.56;99619.84;3158052;28;20034;-63
2022/08/29 06:18:53;;;;;;;;;;;;;;;25.97;48.29;99617.16;3159428;28;20022;-63
2022/08/29 06:20:24;;;;;;;;;;;;;;;26.04;48.17;99614.63;3158071;28;19924;-62
2022/08/29 06:21:56;;;;;;;;;;;;;;;26.10;47.91;99613.94;3158094;28;19935;-63
2022/08/29 06:23:27;;;;;;;;;;;;;;;26.19;47.65;99609.38;3158345;28;19931;-62
2022/08/29 06:24:59;;;;;;;;;;;;;;;26.26;46.97;99613.81;3158007;28;19936;-62
2022/08/29 06:26:31;;;;;;;;;;;;;;;26.32;46.92;99610.50;3157811;28;19924;-63
2022/08/29 06:28:03;;;;;;;;;;;;;;;26.41;46.79;99613.09;3158113;28;19924;-63
2022/08/29 06:29:34;;;;;;;;;;;;;;;26.46;46.24;99619.56;3151670;28;20015;-62
2022/08/29 06:31:09;;;;;;;;;;;;;;;26.51;46.31;99619.06;3157960;28;19931;-62
2022/08/29 06:32:41;;;;;;;;;;;;;;;26.52;46.20;99623.41;3156825;28;20465;-63
2022/08/29 06:34:12;;;;;;;;;;;;;;;26.54;46.61;99622.22;3158012;28;20344;-63
2022/08/29 06:35:44;;;;;;;;;;;;;;;26.61;45.68;99614.31;3155041;28;19951;-63
2022/08/29 06:37:14;;;;;;;;;;;;;;;26.58;45.70;99622.69;3157949;28;19924;-63
2022/08/29 06:38:47;;;;;;;;;;;;;;;26.62;46.05;99617.81;3157783;28;19925;-63
2022/08/29 06:40:18;;;;;;;;;;;;;;;26.65;46.04;99614.78;3157517;28;19974;-63
2022/08/29 06:41:50;;;;;;;;;;;;;;;26.68;45.79;99620.63;3158062;28;19924;-60
2022/08/29 06:43:22;;;;;;;;;;;;;;;26.73;45.94;99614.75;3157925;28;19924;-61
2022/08/29 06:44:53;;;;;;;;;;;;;;;26.82;45.49;99613.66;3157647;28;20328;-63
2022/08/29 06:46:27;;;;;;;;;;;;;;;26.90;45.74;99613.63;3157723;28;19947;-62
2022/08/29 06:47:59;;;;;;;;;;;;;;;27.00;45.44;99616.03;3157695;28;19928;-62
2022/08/29 06:49:32;;;;;;;;;;;;;;;27.10;45.83;99616.63;3157893;28;19931;-62
2022/08/29 06:51:04;;;;;;;;;;;;;;;27.19;45.48;99617.41;3153225;28;19943;-62
2022/08/29 06:52:35;;;;;;;;;;;;;;;27.30;45.60;99616.13;3157996;28;19924;-61
2022/08/29 06:54:08;;;;;;;;;;;;;;;27.40;44.96;99619.38;3155270;28;20409;-62
2022/08/29 06:55:40;;;;;;;;;;;;;;;27.49;44.87;99614.78;3158043;28;20019;-63
2022/08/29 06:57:11;;;;;;;;;;;;;;;27.53;44.58;99622.25;3157194;28;19946;-62
2022/08/29 06:58:43;;;;;;;;;;;;;;;27.57;44.60;99623.56;3157890;28;20326;-61
2022/08/29 07:00:15;;;;;;;;;;;;;;;27.64;44.67;99619.13;3157724;28;19924;-61
2022/08/29 07:01:48;;;;;;;;;;;;;;;27.73;44.42;99616.34;3157438;28;19924;-62
2022/08/29 07:03:21;;;;;;;;;;;;;;;27.81;44.31;99625.16;3157635;28;20013;-61
2022/08/29 07:04:53;;;;;;;;;;;;;;;27.88;43.73;99625.25;3157806;28;19932;-62
2022/08/29 07:06:25;;;;;;;;;;;;;;;27.97;43.93;99620.63;3157642;28;19925;-61
2022/08/29 07:07:57;;;;;;;;;;;;;;;28.07;43.71;99624.69;3157373;28;19924;-62
2022/08/29 07:09:31;;;;;;;;;;;;;;;28.15;43.71;99621.06;3159679;28;19935;-61
2022/08/29 07:11:01;;;;;;;;;;;;;;;28.27;43.28;99624.91;3160091;28;19978;-61
2022/08/29 07:12:33;;;;;;;;;;;;;;;28.35;43.38;99616.75;3159827;28;19939;-62
2022/08/29 07:14:05;;;;;;;;;;;;;;;28.45;42.91;99621.00;3159769;28;19935;-62
2022/08/29 07:15:37;;;;;;;;;;;;;;;28.52;42.69;99627.28;3164432;28;19930;-61
2022/08/29 07:17:10;;;;;;;;;;;;;;;28.60;41.67;99626.31;3160050;28;19944;-61
2022/08/29 07:18:42;;;;;;;;;;;;;;;28.68;41.06;99623.53;3159629;28;19928;-62
2022/08/29 07:20:14;;;;;;;;;;;;;;;28.78;41.01;99624.88;3159968;28;19928;-62
2022/08/29 07:21:47;;;;;;;;;;;;;;;28.84;40.74;99622.44;3160093;28;20011;-61
2022/08/29 07:23:19;;;;;;;;;;;;;;;28.88;39.71;99621.88;3159828;28;19928;-62
2022/08/29 07:24:50;;;;;;;;;;;;;;;28.91;40.18;99620.66;3159873;28;20278;-62
2022/08/29 07:26:23;;;;;;;;;;;;;;;28.99;39.77;99620.53;3159715;28;20358;-62
2022/08/29 07:27:55;;;;;;;;;;;;;;;29.05;39.47;99617.09;3159901;28;19924;-62
2022/08/29 07:29:26;;;;;;;;;;;;;;;29.15;39.67;99617.59;3159951;28;19924;-62
2022/08/29 07:30:58;;;;;;;;;;;;;;;29.26;39.89;99618.91;3159821;28;19993;-62
2022/08/29 07:32:31;;;;;;;;;;;;;;;29.39;39.87;99623.53;3159650;28;19924;-62
2022/08/29 07:34:03;;;;;;;;;;;;;;;29.54;39.45;99618.06;3158825;28;19924;-62
2022/08/29 07:35:34;;;;;;;;;;;;;;;29.68;39.34;99609.94;3159784;28;20489;-62
2022/08/29 07:37:06;;;;;;;;;;;;;;;29.84;39.44;99607.94;3159629;28;20395;-62
2022/08/29 07:38:38;;;;;;;;;;;;;;;29.99;39.28;99618.53;3159669;28;19931;-62
2022/08/29 07:40:11;;;;;;;;;;;;;;;30.15;38.73;99616.34;3159746;28;20419;-61
2022/08/29 07:41:43;;;;;;;;;;;;;;;30.38;38.65;99607.16;3159169;28;20666;-61
2022/08/29 07:43:15;;;;;;;;;;;;;;;30.57;37.94;99618.97;3159690;28;20401;-61
2022/08/29 07:44:47;;;;;;;;;;;;;;;30.81;37.74;99612.22;3159623;28;20458;-62
2022/08/29 07:46:20;;;;;;;;;;;;;;;31.12;37.22;99613.44;3159377;28;19927;-64
2022/08/29 07:47:53;;;;;;;;;;;;;;;31.42;36.87;99619.28;3159604;28;19928;-61
2022/08/29 07:49:25;;;;;;;;;;;;;;;31.72;35.86;99616.94;3159122;28;19939;-61
2022/08/29 07:50:57;;;;;;;;;;;;;;;32.00;35.40;99616.66;3159757;28;20412;-61
2022/08/29 07:52:29;;;;;;;;;;;;;;;32.26;34.74;99615.69;3159505;28;20339;-61
2022/08/29 07:54:00;;;;;;;;;;;;;;;32.50;34.69;99616.03;3159335;28;19931;-61
2022/08/29 07:55:32;;;;;;;;;;;;;;;32.76;34.28;99610.44;3159578;28;19924;-61
2022/08/29 07:57:04;;;;;;;;;;;;;;;32.99;33.11;99609.06;3157627;28;19939;-61
2022/08/29 07:58:36;;;;;;;;;;;;;;;33.18;33.30;99607.25;3159048;28;19924;-62
2022/08/29 08:00:09;;;;;;;;;;;;;;;33.35;32.77;99610.22;3156044;28;19928;-62
2022/08/29 08:01:40;;;;;;;;;;;;;;;33.44;32.53;99608.88;3159497;28;20022;-61